sensor_id;sensor_type;location;lat;lon;timestamp;temperature;humidity
12460;DHT22;6295;49.452;8.466;2022-10-16T05:12:57;15.60;99.90
12460;DHT22;6295;49.452;8.466;2022-10-16T05:17:00;15.60;99.90
12460;DHT22;6295;49.452;8.466;2022-10-16T05:21:02;15.50;99.90
12460;DHT22;6295;49.452;8.466;2022-10-16T05:25:05;15.50;99.90
12460;DHT22;6295;49.452;8.466;2022-10-16T05:29:09;15.50;99.90
12460;DHT22;6295;49.452;8.466;2022-10-16T05:37:14;15.60;99.90
12460;DHT22;6295;49.452;8.466;2022-10-16T05:41:16;15.50;99.90
12460;DHT22;6295;49.452;8.466;2022-10-16T05:45:23;15.60;99.90
12460;DHT22;6295;49.452;8.466;2022-10-16T05:49:25;15.60;99.90
12460;DHT22;6295;49.452;8.466;2022-10-16T05:53:28;15.60;99.90
12460;DHT22;6295;49.452;8.466;2022-10-16T05:57:30;15.60;99.90
12460;DHT22;6295;49.452;8.466;2022-10-16T06:01:34;15.70;99.90
12460;DHT22;6295;49.452;8.466;2022-10-16T06:13:42;15.70;99.90
12460;DHT22;6295;49.452;8.466;2022-10-16T06:17:48;15.70;99.90
12460;DHT22;6295;49.452;8.466;2022-10-16T06:21:50;15.70;99.90
12460;DHT22;6295;49.452;8.466;2022-10-16T06:25:52;15.70;99.90
12460;DHT22;6295;49.452;8.466;2022-10-16T06:34:00;15.70;99.90
12460;DHT22;6295;49.452;8.466;2022-10-16T06:46:09;15.70;99.90
12460;DHT22;6295;49.452;8.466;2022-10-16T06:58:18;15.70;99.90
12460;DHT22;6295;49.452;8.466;2022-10-16T07:02:21;15.70;99.90
12460;DHT22;6295;49.452;8.466;2022-10-16T07:06:25;15.70;99.90
12460;DHT22;6295;49.452;8.466;2022-10-16T07:10:28;15.70;99.90
12460;DHT22;6295;49.452;8.466;2022-10-16T07:18:33;15.70;99.90
12460;DHT22;6295;49.452;8.466;2022-10-16T07:22:36;15.80;99.90
12460;DHT22;6295;49.452;8.466;2022-10-16T07:26:39;15.80;99.90
12460;DHT22;6295;49.452;8.466;2022-10-16T07:30:41;15.90;99.90
12460;DHT22;6295;49.452;8.466;2022-10-16T07:38:47;15.90;99.90
12460;DHT22;6295;49.452;8.466;2022-10-16T07:42:50;16.00;99.90
12460;DHT22;6295;49.452;8.466;2022-10-16T07:46:52;16.00;99.90
12460;DHT22;6295;49.452;8.466;2022-10-16T07:55:02;16.10;99.90
12460;DHT22;6295;49.452;8.466;2022-10-16T07:59:05;16.10;99.90
12460;DHT22;6295;49.452;8.466;2022-10-16T08:03:08;16.10;99.90
12460;DHT22;6295;49.452;8.466;2022-10-16T08:11:14;16.20;99.90
12460;DHT22;6295;49.452;8.466;2022-10-16T08:15:16;16.20;99.90
12460;DHT22;6295;49.452;8.466;2022-10-16T08:19:19;16.20;99.90
12460;DHT22;6295;49.452;8.466;2022-10-16T08:23:21;16.30;99.90
12460;DHT22;6295;49.452;8.466;2022-10-16T08:27:24;16.20;99.90
12460;DHT22;6295;49.452;8.466;2022-10-16T08:35:29;16.30;99.90
12460;DHT22;6295;49.452;8.466;2022-10-16T08:39:31;16.30;99.90
12460;DHT22;6295;49.452;8.466;2022-10-16T08:43:50;16.30;99.90
12460;DHT22;6295;49.452;8.466;2022-10-16T08:52:03;16.40;99.90
12460;DHT22;6295;49.452;8.466;2022-10-16T08:56:06;16.40;99.90
12460;DHT22;6295;49.452;8.466;2022-10-16T09:00:13;16.40;99.90
12460;DHT22;6295;49.452;8.466;2022-10-16T09:08:55;16.40;99.90
12460;DHT22;6295;49.452;8.466;2022-10-16T09:17:20;16.70;99.90
12460;DHT22;6295;49.452;8.466;2022-10-16T09:21:27;16.90;99.90
12460;DHT22;6295;49.452;8.466;2022-10-16T09:25:31;17.00;99.90
12460;DHT22;6295;49.452;8.466;2022-10-16T09:29:34;17.10;99.90
12460;DHT22;6295;49.452;8.466;2022-10-16T09:33:39;17.20;99.90
12460;DHT22;6295;49.452;8.466;2022-10-16T09:37:44;17.30;99.90
12460;DHT22;6295;49.452;8.466;2022-10-16T09:41:47;17.40;99.90
12460;DHT22;6295;49.452;8.466;2022-10-16T09:45:55;17.60;99.90
12460;DHT22;6295;49.452;8.466;2022-10-16T09:50:00;17.60;99.90
12460;DHT22;6295;49.452;8.466;2022-10-16T09:54:14;17.60;99.90
12460;DHT22;6295;49.452;8.466;2022-10-16T09:58:17;17.70;99.90
12460;DHT22;6295;49.452;8.466;2022-10-16T10:02:31;17.70;99.90
12460;DHT22;6295;49.452;8.466;2022-10-16T10:06:40;17.70;99.90
12460;DHT22;6295;49.452;8.466;2022-10-16T10:10:44;17.70;99.90
12460;DHT22;6295;49.452;8.466;2022-10-16T10:14:51;17.80;99.90
12460;DHT22;6295;49.452;8.466;2022-10-16T10:23:20;17.90;99.90
12460;DHT22;6295;49.452;8.466;2022-10-16T10:27:26;18.00;99.90
12460;DHT22;6295;49.452;8.466;2022-10-16T10:35:42;18.10;99.90
12460;DHT22;6295;49.452;8.466;2022-10-16T10:48:17;18.30;99.90
12460;DHT22;6295;49.452;8.466;2022-10-16T10:52:38;18.40;99.90
12460;DHT22;6295;49.452;8.466;2022-10-16T10:56:47;18.50;99.90
12460;DHT22;6295;49.452;8.466;2022-10-16T11:00:59;18.70;99.90
12460;DHT22;6295;49.452;8.466;2022-10-16T11:09:19;18.80;99.90
12460;DHT22;6295;49.452;8.466;2022-10-16T11:13:30;18.90;99.90
12460;DHT22;6295;49.452;8.466;2022-10-16T11:21:44;19.10;99.90
12460;DHT22;6295;49.452;8.466;2022-10-16T11:25:49;19.20;99.90
12460;DHT22;6295;49.452;8.466;2022-10-16T11:29:56;19.40;99.90
12460;DHT22;6295;49.452;8.466;2022-10-16T11:34:04;19.60;99.90
12460;DHT22;6295;49.452;8.466;2022-10-16T11:42:21;19.80;99.90
12460;DHT22;6295;49.452;8.466;2022-10-16T11:46:26;19.80;99.90
12460;DHT22;6295;49.452;8.466;2022-10-16T11:54:39;19.70;99.90
12460;DHT22;6295;49.452;8.466;2022-10-16T11:58:52;19.70;99.90
12460;DHT22;6295;49.452;8.466;2022-10-16T12:03:05;19.70;99.90
12460;DHT22;6295;49.452;8.466;2022-10-16T12:07:14;19.70;99.90
12460;DHT22;6295;49.452;8.466;2022-10-16T12:11:30;19.70;99.90
12460;DHT22;6295;49.452;8.466;2022-10-16T12:15:33;19.70;99.90
12460;DHT22;6295;49.452;8.466;2022-10-16T12:19:37;19.70;99.90
12460;DHT22;6295;49.452;8.466;2022-10-16T12:23:48;19.70;99.90
12460;DHT22;6295;49.452;8.466;2022-10-16T12:27:59;19.70;99.90
12460;DHT22;6295;49.452;8.466;2022-10-16T12:32:04;19.70;99.90
12460;DHT22;6295;49.452;8.466;2022-10-16T12:36:13;19.70;99.90
12460;DHT22;6295;49.452;8.466;2022-10-16T12:44:33;19.80;99.90
12460;DHT22;6295;49.452;8.466;2022-10-16T12:52:39;19.80;99.90
12460;DHT22;6295;49.452;8.466;2022-10-16T13:00:54;19.90;99.90
12460;DHT22;6295;49.452;8.466;2022-10-16T13:05:09;20.00;99.90
12460;DHT22;6295;49.452;8.466;2022-10-16T13:09:31;20.00;99.90
12460;DHT22;6295;49.452;8.466;2022-10-16T13:14:01;20.00;99.90
12460;DHT22;6295;49.452;8.466;2022-10-16T13:18:11;20.00;99.90
12460;DHT22;6295;49.452;8.466;2022-10-16T13:22:21;20.00;99.90
12460;DHT22;6295;49.452;8.466;2022-10-16T13:26:34;19.90;99.90
12460;DHT22;6295;49.452;8.466;2022-10-16T13:30:42;19.80;99.90
12460;DHT22;6295;49.452;8.466;2022-10-16T13:34:46;19.80;99.90
12460;DHT22;6295;49.452;8.466;2022-10-16T13:51:19;19.60;99.90
12460;DHT22;6295;49.452;8.466;2022-10-16T13:55:24;19.60;99.90
12460;DHT22;6295;49.452;8.466;2022-10-16T13:59:33;19.60;99.90
12460;DHT22;6295;49.452;8.466;2022-10-16T14:03:36;19.70;99.90
12460;DHT22;6295;49.452;8.466;2022-10-16T14:07:38;19.60;99.90
12460;DHT22;6295;49.452;8.466;2022-10-16T14:11:45;19.50;99.90
12460;DHT22;6295;49.452;8.466;2022-10-16T14:15:51;19.50;99.90
12460;DHT22;6295;49.452;8.466;2022-10-16T14:19:57;19.50;99.90
12460;DHT22;6295;49.452;8.466;2022-10-16T14:23:59;19.50;99.90
12460;DHT22;6295;49.452;8.466;2022-10-16T14:28:16;19.40;99.90
12460;DHT22;6295;49.452;8.466;2022-10-16T14:32:23;19.30;99.90
12460;DHT22;6295;49.452;8.466;2022-10-16T14:40:31;19.30;99.90
12460;DHT22;6295;49.452;8.466;2022-10-16T14:44:33;19.30;99.90
12460;DHT22;6295;49.452;8.466;2022-10-16T14:48:40;19.20;99.90
12460;DHT22;6295;49.452;8.466;2022-10-16T14:52:43;19.20;99.90
12460;DHT22;6295;49.452;8.466;2022-10-16T14:56:47;19.20;99.90
12460;DHT22;6295;49.452;8.466;2022-10-16T15:00:50;19.20;99.90
12460;DHT22;6295;49.452;8.466;2022-10-16T15:04:54;19.20;99.90
12460;DHT22;6295;49.452;8.466;2022-10-16T15:08:56;19.20;99.90
12460;DHT22;6295;49.452;8.466;2022-10-16T15:12:59;19.30;99.90
12460;DHT22;6295;49.452;8.466;2022-10-16T15:17:01;19.30;99.90
12460;DHT22;6295;49.452;8.466;2022-10-16T15:25:17;19.40;99.90
12460;DHT22;6295;49.452;8.466;2022-10-16T15:29:22;19.40;99.90
12460;DHT22;6295;49.452;8.466;2022-10-16T15:33:25;19.40;99.90
12460;DHT22;6295;49.452;8.466;2022-10-16T15:37:34;19.30;99.90
12460;DHT22;6295;49.452;8.466;2022-10-16T15:41:36;19.30;99.90
12460;DHT22;6295;49.452;8.466;2022-10-16T15:45:39;19.30;99.90
12460;DHT22;6295;49.452;8.466;2022-10-16T15:53:45;19.40;99.90
12460;DHT22;6295;49.452;8.466;2022-10-16T15:57:47;19.40;99.90
12460;DHT22;6295;49.452;8.466;2022-10-16T16:01:50;19.40;99.90
12460;DHT22;6295;49.452;8.466;2022-10-16T16:05:53;19.30;99.90
12460;DHT22;6295;49.452;8.466;2022-10-16T16:09:57;19.20;99.90
12460;DHT22;6295;49.452;8.466;2022-10-16T16:18:01;19.00;99.90
12460;DHT22;6295;49.452;8.466;2022-10-16T16:22:06;18.90;99.90
12460;DHT22;6295;49.452;8.466;2022-10-16T16:26:13;18.70;99.90
12460;DHT22;6295;49.452;8.466;2022-10-16T16:30:16;18.60;99.90
12460;DHT22;6295;49.452;8.466;2022-10-16T16:38:23;18.40;99.90
12460;DHT22;6295;49.452;8.466;2022-10-16T16:42:27;18.30;99.90
12460;DHT22;6295;49.452;8.466;2022-10-16T16:50:35;18.00;99.90
12460;DHT22;6295;49.452;8.466;2022-10-16T16:58:41;17.80;99.90
12460;DHT22;6295;49.452;8.466;2022-10-16T17:02:43;17.70;99.90
12460;DHT22;6295;49.452;8.466;2022-10-16T17:10:48;17.50;99.90
12460;DHT22;6295;49.452;8.466;2022-10-16T17:14:54;17.40;99.90
12460;DHT22;6295;49.452;8.466;2022-10-16T17:23:01;17.10;99.90
12460;DHT22;6295;49.452;8.466;2022-10-16T17:27:03;17.00;99.90
12460;DHT22;6295;49.452;8.466;2022-10-16T17:35:14;16.80;99.90
12460;DHT22;6295;49.452;8.466;2022-10-16T17:39:16;16.70;99.90
12460;DHT22;6295;49.452;8.466;2022-10-16T17:47:23;16.60;99.90
12460;DHT22;6295;49.452;8.466;2022-10-16T17:51:26;16.50;99.90
12460;DHT22;6295;49.452;8.466;2022-10-16T17:55:28;16.40;99.90
12460;DHT22;6295;49.452;8.466;2022-10-16T17:59:31;16.40;99.90
12460;DHT22;6295;49.452;8.466;2022-10-16T18:07:41;16.20;99.90
12460;DHT22;6295;49.452;8.466;2022-10-16T18:11:44;16.10;99.90
12460;DHT22;6295;49.452;8.466;2022-10-16T18:15:46;16.10;99.90
12460;DHT22;6295;49.452;8.466;2022-10-16T18:19:50;16.00;99.90
12460;DHT22;6295;49.452;8.466;2022-10-16T18:27:55;15.90;99.90
12460;DHT22;6295;49.452;8.466;2022-10-16T18:31:58;15.80;99.90
12460;DHT22;6295;49.452;8.466;2022-10-16T18:36:02;15.70;99.90
12460;DHT22;6295;49.452;8.466;2022-10-16T18:40:05;15.70;99.90
12460;DHT22;6295;49.452;8.466;2022-10-16T18:44:07;15.70;99.90
12460;DHT22;6295;49.452;8.466;2022-10-16T18:48:10;15.60;99.90
